createdAt,value
2018-05-29T00:00:03.222Z,24.30
2018-05-29T00:02:07.515Z,24.20
2018-05-29T00:04:11.023Z,24.20
2018-05-29T00:06:14.515Z,24.20
2018-05-29T00:08:18.038Z,24.20
2018-05-29T00:10:22.346Z,24.20
2018-05-29T00:12:25.930Z,24.20
2018-05-29T00:14:29.437Z,24.20
2018-05-29T00:16:33.678Z,24.20
2018-05-29T00:18:37.339Z,24.20
2018-05-29T00:20:41.622Z,24.10
2018-05-29T00:22:45.107Z,24.10
2018-05-29T00:24:48.690Z,24.10
2018-05-29T00:26:52.147Z,24.10
2018-05-29T00:28:56.781Z,24.10
2018-05-29T00:31:01.007Z,24.10
2018-05-29T00:33:04.493Z,24.10
2018-05-29T00:35:08.153Z,24.00
2018-05-29T00:37:11.649Z,24.00
2018-05-29T00:39:15.122Z,24.10
2018-05-29T00:41:19.405Z,24.10
2018-05-29T00:43:22.875Z,24.10
2018-05-29T00:45:26.439Z,24.00
2018-05-29T00:47:30.723Z,24.00
2018-05-29T00:49:34.182Z,24.00
2018-05-29T00:51:37.671Z,24.00
2018-05-29T00:53:42.248Z,24.00
2018-05-29T00:55:45.770Z,24.00
2018-05-29T00:57:50.020Z,23.90
2018-05-29T00:59:53.943Z,23.90
2018-05-29T01:01:57.420Z,24.00
2018-05-29T01:04:01.103Z,23.90
2018-05-29T01:06:05.873Z,23.90
2018-05-29T01:08:09.364Z,23.90
2018-05-29T01:10:12.862Z,23.90
2018-05-29T01:12:16.396Z,23.90
2018-05-29T01:14:19.892Z,23.80
2018-05-29T01:16:24.160Z,23.80
2018-05-29T01:18:27.731Z,23.80
2018-05-29T01:20:31.228Z,23.80
2018-05-29T01:22:34.785Z,23.80
2018-05-29T01:24:38.325Z,23.80
2018-05-29T01:26:41.828Z,23.80
2018-05-29T01:28:45.462Z,23.80
2018-05-29T01:30:48.949Z,23.70
2018-05-29T01:32:52.424Z,23.70
2018-05-29T01:34:55.970Z,23.80
2018-05-29T01:37:00.242Z,23.60
2018-05-29T01:39:03.846Z,23.60
2018-05-29T01:41:08.466Z,23.50
2018-05-29T01:43:12.770Z,23.60
2018-05-29T01:45:23.955Z,23.60
2018-05-29T01:47:30.148Z,23.50
2018-05-29T01:49:34.419Z,23.50
2018-05-29T01:51:38.739Z,23.50
2018-05-29T01:53:42.282Z,23.50
2018-05-29T01:55:45.757Z,23.50
2018-05-29T01:57:49.311Z,23.50
2018-05-29T01:59:53.619Z,23.50
2018-05-29T02:01:57.152Z,23.50
2018-05-29T02:04:01.437Z,23.40
2018-05-29T02:06:05.335Z,23.40
2018-05-29T02:08:08.826Z,23.40
2018-05-29T02:10:12.303Z,23.50
2018-05-29T02:12:15.851Z,23.50
2018-05-29T02:14:19.340Z,23.40
2018-05-29T02:16:22.873Z,23.30
2018-05-29T02:18:26.467Z,23.40
2018-05-29T02:20:29.955Z,23.40
2018-05-29T02:22:33.473Z,23.40
2018-05-29T02:24:36.919Z,23.40
2018-05-29T02:26:40.467Z,23.30
2018-05-29T02:28:43.964Z,23.30
2018-05-29T02:30:47.466Z,23.30
2018-05-29T02:32:51.010Z,23.30
2018-05-29T02:34:55.299Z,23.20
2018-05-29T02:36:58.824Z,23.20
2018-05-29T02:39:02.382Z,23.20
2018-05-29T02:41:05.927Z,23.30
2018-05-29T02:43:09.462Z,23.30
2018-05-29T02:45:12.971Z,23.30
2018-05-29T02:47:17.307Z,23.30
2018-05-29T02:49:21.592Z,23.30
2018-05-29T02:51:25.174Z,23.30
2018-05-29T02:53:28.672Z,23.20
2018-05-29T02:55:32.623Z,23.10
2018-05-29T02:57:36.190Z,23.20
2018-05-29T02:59:40.522Z,23.30
2018-05-29T03:01:44.050Z,23.20
2018-05-29T03:03:47.614Z,23.20
2018-05-29T03:05:51.241Z,23.20
2018-05-29T03:07:54.819Z,23.20
2018-05-29T03:09:59.127Z,23.10
2018-05-29T03:12:03.383Z,23.00
2018-05-29T03:14:06.853Z,23.00
2018-05-29T03:16:10.431Z,23.00
2018-05-29T03:18:13.950Z,23.00
2018-05-29T03:20:17.422Z,23.00
2018-05-29T03:22:21.710Z,23.00
2018-05-29T03:24:25.971Z,22.80
2018-05-29T03:26:29.961Z,22.80
2018-05-29T03:28:33.423Z,22.60
2018-05-29T03:30:37.004Z,22.60
2018-05-29T03:32:40.586Z,22.60
2018-05-29T03:34:44.148Z,22.70
2018-05-29T03:36:48.427Z,22.90
2018-05-29T03:38:51.947Z,22.90
2018-05-29T03:40:55.855Z,22.90
2018-05-29T03:42:59.352Z,22.90
2018-05-29T03:45:03.642Z,22.50
2018-05-29T03:47:07.181Z,22.50
2018-05-29T03:49:10.660Z,22.50
2018-05-29T03:51:14.215Z,22.60
2018-05-29T03:53:17.735Z,22.80
2018-05-29T03:55:21.209Z,22.80
2018-05-29T03:57:24.735Z,22.80
2018-05-29T03:59:29.026Z,22.90
2018-05-29T04:01:33.325Z,23.00
2018-05-29T04:03:36.847Z,22.90
2018-05-29T04:05:41.125Z,22.90
2018-05-29T04:07:44.650Z,22.90
2018-05-29T04:09:48.140Z,22.90
2018-05-29T04:11:52.438Z,22.60
2018-05-29T04:13:56.086Z,22.60
2018-05-29T04:15:59.574Z,22.60
2018-05-29T04:18:03.127Z,22.80
2018-05-29T04:20:06.614Z,22.70
2018-05-29T04:22:10.158Z,22.70
2018-05-29T04:24:13.652Z,22.50
2018-05-29T04:26:17.315Z,22.60
2018-05-29T04:28:20.821Z,22.70
2018-05-29T04:30:24.381Z,22.80
2018-05-29T04:32:27.867Z,22.70
2018-05-29T04:34:31.373Z,22.80
2018-05-29T04:36:34.902Z,22.80
2018-05-29T04:38:38.440Z,22.90
2018-05-29T04:40:41.950Z,22.90
2018-05-29T04:42:45.494Z,22.90
2018-05-29T04:44:49.813Z,22.70
2018-05-29T04:46:54.119Z,22.80
2018-05-29T04:48:58.014Z,22.80
2018-05-29T04:51:01.482Z,22.80
2018-05-29T04:53:05.006Z,22.80
2018-05-29T04:55:09.989Z,22.80
2018-05-29T04:57:14.707Z,22.80
2018-05-29T04:59:18.684Z,22.80
2018-05-29T05:01:22.562Z,22.90
2018-05-29T05:03:26.454Z,22.70
2018-05-29T05:05:30.158Z,22.80
2018-05-29T05:07:33.726Z,22.80
2018-05-29T05:09:37.307Z,22.80
2018-05-29T05:11:40.855Z,22.80
2018-05-29T05:13:44.379Z,22.70
2018-05-29T05:15:48.618Z,22.70
2018-05-29T05:17:52.123Z,22.70
2018-05-29T05:19:55.669Z,22.80
2018-05-29T05:21:59.905Z,22.90
2018-05-29T05:24:04.204Z,22.90
2018-05-29T05:26:07.763Z,22.90
2018-05-29T05:28:11.275Z,22.80
2018-05-29T05:30:15.570Z,22.70
2018-05-29T05:32:19.216Z,22.70
2018-05-29T05:34:22.693Z,22.70
2018-05-29T05:36:26.954Z,22.90
2018-05-29T05:38:30.467Z,22.80
2018-05-29T05:40:33.954Z,22.70
2018-05-29T05:42:37.467Z,22.70
2018-05-29T05:44:41.036Z,22.80
2018-05-29T05:46:44.562Z,22.90
2018-05-29T05:48:48.127Z,22.90
2018-05-29T05:50:51.678Z,22.80
2018-05-29T05:52:55.188Z,22.80
2018-05-29T05:54:58.731Z,22.80
2018-05-29T05:57:02.267Z,22.80
2018-05-29T05:59:06.563Z,22.90
2018-05-29T06:01:10.798Z,23.00
2018-05-29T06:03:14.328Z,23.00
2018-05-29T06:05:17.874Z,23.10
2018-05-29T06:07:22.211Z,22.90
2018-05-29T06:09:25.675Z,22.90
2018-05-29T06:11:29.227Z,23.00
2018-05-29T06:13:32.761Z,23.00
2018-05-29T06:15:37.355Z,22.90
2018-05-29T06:17:41.674Z,22.70
2018-05-29T06:19:45.158Z,22.70
2018-05-29T06:21:48.707Z,22.90
2018-05-29T06:23:52.203Z,23.10
2018-05-29T06:25:55.756Z,23.10
2018-05-29T06:27:59.287Z,23.20
2018-05-29T06:30:03.566Z,23.10
2018-05-29T06:32:08.288Z,23.20
2018-05-29T06:34:11.786Z,23.20
2018-05-29T06:36:15.367Z,23.30
2018-05-29T06:38:19.392Z,23.20
2018-05-29T06:40:23.707Z,23.00
2018-05-29T06:42:28.003Z,22.80
2018-05-29T06:44:31.507Z,22.80
2018-05-29T06:46:34.999Z,22.60
2018-05-29T06:48:38.612Z,22.80
2018-05-29T06:50:42.267Z,23.00
2018-05-29T06:52:45.815Z,23.30
2018-05-29T06:54:50.110Z,23.30
2018-05-29T06:56:53.648Z,23.30
2018-05-29T06:58:57.200Z,23.40
2018-05-29T07:01:00.739Z,23.40
2018-05-29T07:03:04.222Z,23.30
2018-05-29T07:05:08.523Z,23.20
2018-05-29T07:07:12.851Z,23.40
2018-05-29T07:09:29.388Z,23.40
2018-05-29T07:11:33.331Z,23.40
2018-05-29T07:13:36.901Z,23.50
2018-05-29T07:15:40.390Z,23.50
2018-05-29T07:17:44.266Z,23.60
2018-05-29T07:19:47.820Z,23.60
2018-05-29T07:21:51.270Z,23.60
2018-05-29T07:23:54.794Z,23.50
2018-05-29T07:25:58.316Z,23.60
2018-05-29T07:28:01.979Z,23.60
2018-05-29T07:30:05.584Z,23.60
2018-05-29T07:32:09.083Z,23.60
2018-05-29T07:34:12.927Z,23.60
2018-05-29T07:36:16.428Z,23.70
2018-05-29T07:38:19.989Z,23.80
2018-05-29T07:40:25.315Z,23.70
2018-05-29T07:42:28.855Z,23.70
2018-05-29T07:44:33.314Z,23.80
2018-05-29T07:46:37.603Z,23.80
2018-05-29T07:48:41.067Z,23.80
2018-05-29T07:50:44.912Z,23.80
2018-05-29T07:52:48.395Z,24.00
2018-05-29T07:54:51.913Z,24.00
2018-05-29T07:56:55.514Z,24.00
2018-05-29T07:58:59.049Z,23.90
2018-05-29T08:01:02.578Z,23.80
2018-05-29T08:03:06.078Z,24.00
2018-05-29T08:05:09.582Z,24.10
2018-05-29T08:07:13.100Z,24.00
2018-05-29T08:09:17.431Z,24.10
2018-05-29T08:11:21.748Z,24.10
2018-05-29T08:13:25.220Z,24.00
2018-05-29T08:15:29.212Z,24.10
2018-05-29T08:17:33.443Z,24.20
2018-05-29T08:19:36.891Z,24.20
2018-05-29T08:21:40.465Z,24.20
2018-05-29T08:23:43.952Z,24.10
2018-05-29T08:25:48.236Z,24.40
2018-05-29T08:27:52.557Z,24.40
2018-05-29T08:29:56.027Z,24.40
2018-05-29T08:31:59.553Z,24.40
2018-05-29T08:34:03.805Z,24.50
2018-05-29T08:36:07.279Z,24.40
2018-05-29T08:38:10.820Z,24.50
2018-05-29T08:40:14.303Z,24.50
2018-05-29T08:42:17.817Z,24.60
2018-05-29T08:44:21.351Z,24.60
2018-05-29T08:46:25.694Z,24.80
2018-05-29T08:48:29.215Z,24.70
2018-05-29T08:50:33.533Z,24.70
2018-05-29T08:52:37.005Z,24.80
2018-05-29T08:54:40.547Z,24.80
2018-05-29T08:56:44.074Z,24.80
2018-05-29T08:58:47.546Z,24.90
2018-05-29T09:00:51.831Z,25.00
2018-05-29T09:02:56.120Z,25.00
2018-05-29T09:04:59.662Z,24.90
2018-05-29T09:07:03.177Z,25.00
2018-05-29T09:09:06.670Z,25.10
2018-05-29T09:11:10.320Z,25.20
2018-05-29T09:13:13.841Z,25.20
2018-05-29T09:15:17.357Z,25.20
2018-05-29T09:17:20.919Z,25.20
2018-05-29T09:19:24.393Z,25.20
2018-05-29T09:21:27.921Z,25.20
2018-05-29T09:23:32.236Z,25.30
2018-05-29T09:25:36.520Z,25.40
2018-05-29T09:27:40.059Z,25.30
2018-05-29T09:29:44.363Z,25.50
2018-05-29T09:31:47.866Z,25.50
2018-05-29T09:33:51.387Z,25.70
2018-05-29T09:35:54.863Z,25.60
2018-05-29T09:37:59.125Z,25.70
2018-05-29T09:40:02.615Z,25.70
2018-05-29T09:42:06.267Z,25.70
2018-05-29T09:44:09.821Z,25.80
2018-05-29T09:46:14.518Z,25.80
2018-05-29T09:48:18.077Z,25.70
2018-05-29T09:50:22.395Z,25.90
2018-05-29T09:52:26.766Z,25.90
2018-05-29T09:54:30.297Z,25.90
2018-05-29T09:56:33.765Z,25.90
2018-05-29T09:58:37.371Z,25.90
2018-05-29T10:00:40.896Z,26.00
2018-05-29T10:02:45.162Z,26.10
2018-05-29T10:04:48.677Z,26.10
2018-05-29T10:06:52.959Z,26.40
2018-05-29T10:08:56.455Z,26.30
2018-05-29T10:11:02.975Z,26.30
2018-05-29T10:13:11.278Z,26.40
2018-05-29T10:15:21.001Z,26.40
2018-05-29T10:17:25.350Z,26.40
2018-05-29T10:19:28.929Z,26.40
2018-05-29T10:21:33.205Z,26.40
2018-05-29T10:23:36.691Z,26.40
2018-05-29T10:25:40.219Z,26.40
2018-05-29T10:27:44.520Z,26.70
2018-05-29T10:29:48.759Z,26.70
2018-05-29T10:31:52.297Z,26.70
2018-05-29T10:33:56.531Z,27.20
2018-05-29T10:36:00.070Z,27.20
2018-05-29T10:38:03.606Z,27.60
2018-05-29T10:40:07.256Z,27.10
2018-05-29T10:42:10.743Z,27.00
2018-05-29T10:44:14.250Z,26.90
2018-05-29T10:46:18.194Z,27.00
2018-05-29T10:48:21.667Z,26.90
2018-05-29T10:50:25.147Z,27.20
2018-05-29T10:52:28.743Z,27.50
2018-05-29T10:54:33.400Z,27.30
2018-05-29T10:56:36.890Z,27.30
2018-05-29T10:58:41.139Z,27.20
2018-05-29T11:00:44.691Z,27.20
2018-05-29T11:02:48.194Z,27.30
2018-05-29T11:04:51.990Z,27.30
2018-05-29T11:06:55.515Z,27.30
2018-05-29T11:09:00.011Z,27.30
2018-05-29T11:11:04.291Z,27.30
2018-05-29T11:13:07.821Z,27.30
2018-05-29T11:15:11.303Z,27.60
2018-05-29T11:17:15.639Z,27.80
2018-05-29T11:19:19.151Z,27.80
2018-05-29T11:21:22.634Z,27.60
2018-05-29T11:23:26.155Z,27.60
2018-05-29T11:25:30.461Z,27.60
2018-05-29T11:27:34.784Z,27.80
2018-05-29T11:29:39.052Z,28.00
2018-05-29T11:31:42.615Z,28.00
2018-05-29T11:33:46.133Z,28.10
2018-05-29T11:35:49.610Z,28.00
2018-05-29T11:37:53.059Z,28.40
2018-05-29T11:39:56.553Z,28.20
2018-05-29T11:42:00.084Z,27.90
2018-05-29T11:44:03.742Z,28.10
2018-05-29T11:46:07.200Z,28.00
2018-05-29T11:48:10.655Z,28.10
2018-05-29T11:50:14.190Z,28.00
2018-05-29T11:52:17.734Z,28.20
2018-05-29T11:54:21.600Z,28.00
2018-05-29T11:56:25.103Z,28.00
2018-05-29T11:58:28.589Z,27.90
2018-05-29T12:00:32.194Z,28.10
2018-05-29T12:02:36.014Z,28.20
2018-05-29T12:04:39.190Z,28.30
2018-05-29T12:06:42.704Z,28.20
2018-05-29T12:08:46.236Z,28.40
2018-05-29T12:10:49.781Z,28.50
2018-05-29T12:12:53.243Z,28.60
2018-05-29T12:14:56.739Z,28.70
2018-05-29T12:17:00.585Z,28.40
2018-05-29T12:19:04.872Z,28.70
2018-05-29T12:21:08.388Z,28.70
2018-05-29T12:23:12.684Z,29.30
2018-05-29T12:25:16.180Z,29.30
2018-05-29T12:27:19.680Z,30.00
2018-05-29T12:29:23.179Z,29.80
2018-05-29T12:31:26.683Z,29.60
2018-05-29T12:33:30.156Z,29.00
2018-05-29T12:35:33.648Z,29.10
2018-05-29T12:37:37.669Z,29.00
2018-05-29T12:39:41.098Z,29.50
2018-05-29T12:41:44.588Z,29.30
2018-05-29T12:43:48.447Z,29.20
2018-05-29T12:45:51.931Z,29.50
2018-05-29T12:47:55.443Z,29.40
2018-05-29T12:49:58.943Z,29.30
2018-05-29T12:52:02.476Z,29.20
2018-05-29T12:54:06.007Z,29.30
2018-05-29T12:56:09.530Z,29.70
2018-05-29T12:58:13.007Z,29.50
2018-05-29T13:00:16.489Z,29.30
2018-05-29T13:02:19.996Z,29.80
2018-05-29T13:04:23.480Z,30.60
2018-05-29T13:06:26.963Z,30.70
2018-05-29T13:08:30.512Z,30.00
2018-05-29T13:10:34.013Z,29.60
2018-05-29T13:12:37.480Z,29.30
2018-05-29T13:14:40.962Z,29.10
2018-05-29T13:16:44.493Z,29.00
2018-05-29T13:18:47.971Z,28.90
2018-05-29T13:20:51.454Z,28.80
2018-05-29T13:22:54.976Z,29.20
2018-05-29T13:24:59.238Z,30.90
2018-05-29T13:27:02.705Z,30.90
2018-05-29T13:29:06.935Z,31.70
2018-05-29T13:31:10.939Z,31.70
2018-05-29T13:33:14.383Z,31.90
2018-05-29T13:35:17.918Z,31.60
2018-05-29T13:37:21.743Z,32.20
2018-05-29T13:39:25.257Z,32.20
2018-05-29T13:41:28.769Z,32.10
2018-05-29T13:43:32.247Z,32.60
2018-05-29T13:45:35.780Z,32.90
2018-05-29T13:47:39.298Z,33.00
2018-05-29T13:49:43.956Z,32.80
2018-05-29T13:51:47.650Z,32.50
2018-05-29T13:53:51.271Z,32.00
2018-05-29T13:55:54.739Z,31.40
2018-05-29T13:57:58.170Z,30.80
2018-05-29T14:00:02.457Z,31.30
2018-05-29T14:02:05.928Z,31.30
2018-05-29T14:04:09.431Z,31.50
2018-05-29T14:06:12.891Z,32.10
2018-05-29T14:08:17.138Z,31.90
2018-05-29T14:10:20.629Z,31.90
2018-05-29T14:12:24.519Z,32.30
2018-05-29T14:14:28.035Z,32.70
2018-05-29T14:16:31.536Z,32.50
2018-05-29T14:18:35.850Z,32.70
2018-05-29T14:20:39.303Z,33.20
2018-05-29T14:22:43.089Z,32.80
2018-05-29T14:24:47.311Z,31.80
2018-05-29T14:26:51.523Z,32.30
2018-05-29T14:28:55.362Z,32.30
2018-05-29T14:30:58.807Z,31.90
2018-05-29T14:33:02.274Z,31.40
2018-05-29T14:35:05.819Z,31.00
2018-05-29T14:37:09.327Z,31.20
2018-05-29T14:39:13.452Z,32.00
2018-05-29T14:41:16.956Z,32.20
2018-05-29T14:43:21.231Z,32.90
2018-05-29T14:45:24.732Z,32.90
2018-05-29T14:47:29.011Z,33.80
2018-05-29T14:49:33.223Z,33.70
2018-05-29T14:51:37.469Z,33.90
2018-05-29T14:53:41.056Z,33.90
2018-05-29T14:55:45.299Z,33.80
2018-05-29T14:57:48.768Z,33.80
2018-05-29T14:59:52.278Z,34.30
2018-05-29T15:01:55.731Z,34.20
2018-05-29T15:03:59.235Z,33.20
2018-05-29T15:06:03.463Z,31.80
2018-05-29T15:08:06.920Z,31.80
2018-05-29T15:10:10.402Z,31.60
2018-05-29T15:12:13.842Z,31.50
2018-05-29T15:14:17.374Z,32.20
2018-05-29T15:16:20.826Z,33.40
2018-05-29T15:18:24.335Z,33.80
2018-05-29T15:20:27.834Z,34.30
2018-05-29T15:22:31.275Z,34.20
2018-05-29T15:24:34.778Z,34.30
2018-05-29T15:26:38.251Z,33.70
2018-05-29T15:28:41.678Z,32.70
2018-05-29T15:30:45.888Z,33.10
2018-05-29T15:32:49.390Z,33.10
2018-05-29T15:34:53.724Z,33.30
2018-05-29T15:36:57.225Z,33.60
2018-05-29T15:39:00.669Z,33.90
2018-05-29T15:41:04.103Z,34.00
2018-05-29T15:43:08.015Z,34.50
2018-05-29T15:45:11.467Z,34.60
2018-05-29T15:47:14.965Z,34.70
2018-05-29T15:49:19.208Z,34.40
2018-05-29T15:51:22.695Z,34.40
2018-05-29T15:53:28.024Z,33.70
2018-05-29T15:55:31.688Z,33.70
2018-05-29T15:57:35.787Z,32.80
2018-05-29T15:59:40.091Z,32.30
2018-05-29T16:01:43.588Z,32.30
2018-05-29T16:03:47.060Z,32.10
2018-05-29T16:05:50.923Z,31.80
2018-05-29T16:07:55.122Z,31.10
2018-05-29T16:09:59.325Z,31.10
2018-05-29T16:12:02.808Z,31.20
2018-05-29T16:14:07.083Z,31.20
2018-05-29T16:16:11.284Z,31.40
2018-05-29T16:18:14.879Z,31.40
2018-05-29T16:20:18.326Z,31.30
2018-05-29T16:22:22.471Z,31.00
2018-05-29T16:24:25.913Z,30.90
2018-05-29T16:26:29.396Z,31.00
2018-05-29T16:28:32.920Z,31.00
2018-05-29T16:30:37.199Z,30.70
2018-05-29T16:32:40.802Z,30.70
2018-05-29T16:34:44.309Z,30.40
2018-05-29T16:36:47.795Z,30.40
2018-05-29T16:38:51.362Z,30.40
2018-05-29T16:40:54.879Z,30.10
2018-05-29T16:42:58.920Z,30.20
2018-05-29T16:45:02.403Z,30.10
2018-05-29T16:47:06.667Z,30.10
2018-05-29T16:49:10.779Z,30.00
2018-05-29T16:51:15.059Z,29.80
2018-05-29T16:53:18.866Z,29.80
2018-05-29T16:55:22.330Z,29.70
2018-05-29T16:57:26.189Z,29.70
2018-05-29T16:59:30.739Z,29.50
2018-05-29T17:01:35.736Z,29.20
2018-05-29T17:03:40.011Z,29.20
2018-05-29T17:05:43.515Z,29.40
2018-05-29T17:07:47.211Z,29.10
2018-05-29T17:09:50.747Z,29.00
2018-05-29T17:11:54.243Z,28.80
2018-05-29T17:13:57.706Z,28.90
2018-05-29T17:16:01.927Z,28.70
2018-05-29T17:18:06.196Z,28.60
2018-05-29T17:20:09.647Z,28.60
2018-05-29T17:22:13.140Z,28.60
2018-05-29T17:24:16.639Z,28.60
2018-05-29T17:26:20.095Z,28.60
2018-05-29T17:28:23.571Z,28.50
2018-05-29T17:30:27.084Z,28.40
2018-05-29T17:32:31.938Z,28.50
2018-05-29T17:34:36.162Z,28.40
2018-05-29T17:36:39.698Z,28.40
2018-05-29T17:38:43.215Z,28.30
2018-05-29T17:40:46.704Z,28.10
2018-05-29T17:42:50.452Z,28.10
2018-05-29T17:44:53.936Z,28.10
2018-05-29T17:46:58.144Z,28.20
2018-05-29T17:49:02.770Z,28.30
2018-05-29T17:51:06.202Z,28.40
2018-05-29T17:53:10.700Z,28.30
2018-05-29T17:55:14.194Z,28.10
2018-05-29T17:57:17.698Z,28.20
2018-05-29T17:59:22.263Z,27.90
2018-05-29T18:01:26.664Z,27.60
2018-05-29T18:03:30.880Z,27.60
2018-05-29T18:05:34.378Z,27.40
2018-05-29T18:07:38.615Z,27.80
2018-05-29T18:09:42.131Z,28.00
2018-05-29T18:11:46.065Z,27.80
2018-05-29T18:13:49.558Z,27.40
2018-05-29T18:15:52.978Z,27.20
2018-05-29T18:17:58.196Z,26.80
2018-05-29T18:20:01.642Z,26.60
2018-05-29T18:22:05.484Z,26.60
2018-05-29T18:24:09.702Z,26.30
2018-05-29T18:26:13.154Z,26.30
2018-05-29T18:28:16.638Z,26.20
2018-05-29T18:30:20.099Z,26.00
2018-05-29T18:32:23.521Z,25.60
2018-05-29T18:34:27.526Z,25.10
2018-05-29T18:36:30.976Z,25.30
2018-05-29T18:38:36.143Z,25.40
2018-05-29T18:40:42.904Z,26.00
2018-05-29T18:42:47.604Z,25.90
2018-05-29T18:44:51.074Z,25.90
2018-05-29T18:46:54.550Z,25.70
2018-05-29T18:48:58.612Z,25.20
2018-05-29T18:51:02.602Z,25.00
2018-05-29T18:53:06.098Z,24.50
2018-05-29T18:55:09.535Z,24.60
2018-05-29T18:57:15.123Z,24.50
2018-05-29T18:59:18.568Z,24.40
2018-05-29T19:01:22.793Z,24.40
2018-05-29T19:03:26.312Z,24.40
2018-05-29T19:05:29.792Z,24.50
2018-05-29T19:07:33.565Z,24.00
2018-05-29T19:09:38.137Z,24.50
2018-05-29T19:11:41.692Z,24.50
2018-05-29T19:13:45.566Z,24.20
2018-05-29T19:15:49.472Z,24.60
2018-05-29T19:17:53.696Z,25.00
2018-05-29T19:19:59.659Z,25.70
2018-05-29T19:22:04.649Z,25.70
2018-05-29T19:24:08.867Z,26.00
2018-05-29T19:26:15.431Z,26.20
2018-05-29T19:28:18.869Z,26.40
2018-05-29T19:30:24.830Z,26.30
2018-05-29T19:32:31.150Z,26.40
2018-05-29T19:34:35.286Z,26.30
2018-05-29T19:36:38.826Z,26.30
2018-05-29T19:38:44.526Z,26.30
2018-05-29T19:40:47.973Z,26.30
2018-05-29T19:42:51.477Z,25.80
2018-05-29T19:44:57.766Z,25.20
2018-05-29T19:47:02.008Z,25.10
2018-05-29T19:49:06.512Z,25.00
2018-05-29T19:51:10.184Z,24.60
2018-05-29T19:53:13.900Z,24.60
2018-05-29T19:55:18.140Z,24.80
2018-05-29T19:57:23.321Z,24.70
2018-05-29T19:59:27.626Z,24.50
2018-05-29T20:01:32.235Z,24.70
2018-05-29T20:03:39.455Z,24.80
2018-05-29T20:05:43.792Z,25.30
2018-05-29T20:07:47.335Z,25.30
2018-05-29T20:09:51.535Z,25.50
2018-05-29T20:11:56.729Z,25.70
2018-05-29T20:14:00.259Z,25.90
2018-05-29T20:16:03.767Z,26.00
2018-05-29T20:18:08.118Z,26.10
2018-05-29T20:20:12.982Z,26.10
2018-05-29T20:22:16.478Z,26.00
2018-05-29T20:24:20.358Z,25.90
2018-05-29T20:26:24.310Z,25.60
2018-05-29T20:28:27.755Z,24.90
2018-05-29T20:30:31.223Z,24.70
2018-05-29T20:32:35.575Z,24.70
2018-05-29T20:34:39.823Z,24.90
2018-05-29T20:36:43.329Z,24.80
2018-05-29T20:38:47.655Z,25.70
2018-05-29T20:40:51.523Z,25.70
2018-05-29T20:42:55.291Z,25.60
2018-05-29T20:44:59.805Z,25.30
2018-05-29T20:47:03.292Z,25.30
2018-05-29T20:49:06.908Z,25.00
2018-05-29T20:51:10.357Z,24.50
2018-05-29T20:53:14.566Z,24.40
2018-05-29T20:55:19.170Z,24.50
2018-05-29T20:57:23.678Z,24.40
2018-05-29T20:59:27.262Z,24.30
2018-05-29T21:01:31.106Z,24.40
2018-05-29T21:03:34.530Z,24.80
2018-05-29T21:05:39.216Z,25.20
2018-05-29T21:07:42.794Z,25.20
2018-05-29T21:09:46.258Z,24.80
2018-05-29T21:11:51.412Z,24.60
2018-05-29T21:13:54.916Z,24.00
2018-05-29T21:15:59.091Z,23.90
2018-05-29T21:18:02.546Z,24.30
2018-05-29T21:20:06.236Z,24.50
2018-05-29T21:22:09.782Z,24.80
2018-05-29T21:24:13.743Z,24.90
2018-05-29T21:26:17.208Z,24.40
2018-05-29T21:28:20.643Z,24.10
2018-05-29T21:30:24.759Z,23.70
2018-05-29T21:32:28.225Z,23.60
2018-05-29T21:34:32.311Z,23.50
2018-05-29T21:36:36.372Z,23.60
2018-05-29T21:38:40.355Z,23.90
2018-05-29T21:40:45.260Z,23.70
2018-05-29T21:42:53.067Z,23.50
2018-05-29T21:45:01.652Z,23.50
2018-05-29T21:47:05.737Z,23.50
2018-05-29T21:49:09.188Z,23.70
2018-05-29T21:51:13.036Z,23.90
2018-05-29T21:53:18.297Z,23.90
2018-05-29T21:55:21.753Z,23.50
2018-05-29T21:57:25.243Z,23.10
2018-05-29T21:59:29.495Z,23.90
2018-05-29T22:01:33.095Z,23.90
2018-05-29T22:03:37.641Z,23.90
2018-05-29T22:05:41.374Z,23.20
2018-05-29T22:07:44.894Z,22.60
2018-05-29T22:09:48.433Z,22.10
2018-05-29T22:11:51.903Z,22.10
2018-05-29T22:13:55.424Z,22.20
2018-05-29T22:15:59.007Z,22.30
2018-05-29T22:18:03.487Z,22.50
2018-05-29T22:20:06.977Z,22.70
2018-05-29T22:22:10.464Z,22.40
2018-05-29T22:24:14.252Z,22.20
2018-05-29T22:26:17.779Z,22.40
2018-05-29T22:28:21.951Z,22.40
2018-05-29T22:30:26.801Z,22.40
2018-05-29T22:32:30.732Z,22.30
2018-05-29T22:34:34.851Z,22.40
2018-05-29T22:36:38.966Z,22.60
2018-05-29T22:38:43.847Z,22.40
2018-05-29T22:40:47.697Z,22.20
2018-05-29T22:42:51.392Z,22.40
2018-05-29T22:44:54.886Z,22.60
2018-05-29T22:46:58.429Z,22.50
2018-05-29T22:49:01.960Z,22.60
2018-05-29T22:51:05.473Z,22.40
2018-05-29T22:53:09.221Z,22.70
2018-05-29T22:55:12.704Z,22.40
2018-05-29T22:57:17.610Z,22.00
2018-05-29T22:59:21.065Z,22.00
2018-05-29T23:01:24.560Z,21.90
2018-05-29T23:03:28.605Z,21.50
2018-05-29T23:05:33.077Z,21.40
2018-05-29T23:07:36.719Z,21.40
2018-05-29T23:09:40.769Z,21.70
2018-05-29T23:11:45.829Z,21.70
2018-05-29T23:13:50.077Z,21.60
2018-05-29T23:15:53.607Z,21.30
2018-05-29T23:17:57.903Z,21.80
2018-05-29T23:20:01.410Z,21.80
2018-05-29T23:22:05.052Z,21.90
2018-05-29T23:24:08.802Z,21.70
2018-05-29T23:26:12.879Z,21.70
2018-05-29T23:28:17.287Z,21.90
2018-05-29T23:30:21.123Z,21.70
2018-05-29T23:32:25.092Z,21.80
2018-05-29T23:34:29.740Z,21.60
2018-05-29T23:36:33.199Z,21.60
2018-05-29T23:38:37.436Z,21.60
2018-05-29T23:40:41.428Z,21.60
2018-05-29T23:42:45.685Z,21.40
2018-05-29T23:44:49.258Z,21.40
2018-05-29T23:46:52.811Z,21.60
2018-05-29T23:48:56.519Z,21.60
2018-05-29T23:51:00.003Z,21.70
2018-05-29T23:53:03.506Z,21.80
2018-05-29T23:55:07.284Z,21.70
2018-05-29T23:57:11.143Z,21.80
2018-05-29T23:59:15.840Z,21.50
